Aviation Digital Data Service (ADDS)

Output produced by METARs form (1025 UTC 02 October 2014)
found at http://aviationweather.gov/adds/metars/
 
KRME 020849Z 0209/0306 VRB03KT P6SM OVC015 
     TEMPO 0209/0213 3SM BR SCT015 
     FM021400 13005KT P6SM SCT045 
     FM030000 14008KT P6SM FEW045